Waldron, KS (67150)

2:25 AM CST on February 14, 2016 (GMT -0600)
Anthony Medical Center | | Change Station
CLOSE
Current Station
Personal Weather Station
Location: Anthony, KS
Elevation: 1355 ft
Nearby Weather Stations

Elev 1355 ft 37.16 °N, 98.02 °W | Updated 5 seconds ago

Mostly Cloudy
Mostly Cloudy
37.6 °F
Feels Like 38 °F
N
1.0
Wind Variable Wind from NE
Gusts 2.0 mph

Today
High -- | Low -- °F
--% Chance of Precip.
Yesterday
High -- | Low -- °F
Precip. -- in
Pressure 29.89 in
Visibility 9.0 miles
Clouds Scattered Clouds 2300 ft
Scattered Clouds 3400 ft
Mostly Cloudy 4000 ft
Windchill 38 °F
Dew Point 29 °F
Humidity 70%
Rainfall 0.00 in
Snow Depth Not available.
7:23 AM 6:11 PM
Waxing Crescent, 39% visible
METAR KAVK 140815Z AUTO 04009KT 9SM SCT023 SCT034 BKN040 01/M01 A2989 RMK AO2
Pressure 29.89 in
Visibility 9.0 miles
Clouds Scattered Clouds 2300 ft
Scattered Clouds 3400 ft
Mostly Cloudy 4000 ft
Windchill 38 °F
Dew Point 29 °F
Humidity 70%
Rainfall 0.00 in
Snow Depth Not available.
7:23 AM 6:11 PM
Waxing Crescent, 39% visible
METAR KAVK 140815Z AUTO 04009KT 9SM SCT023 SCT034 BKN040 01/M01 A2989 RMK AO2

10-Day Weather Forecast

Almanac

Astronomy

Feb. 14, 2016 Rise Set
Actual Time
Civil Twilight
Nautical Twilight
Astronomical Twilight
Moon
Length of Visible Light
Length of Day
Tomorrow will be .
, % of the Moon is Illuminated

Today's Extremes

State Highs State Lows

Community

WunderPhotos

Upload Photos

1,892,757 photos uploaded!

WunderBlog® & News

Nearby

Air Quality

  Air Quality AQ Index Pollutant
Not available.

Snow Depth

Station Depth Elevation

Earthquake Activity

City Distance Mag. Time & Date
Minimum magnitude displayed is 2.5.

Coastal Water Temperatures

Place Temperature

Stations

Nearby Weather Stations

Station Location Temp. Windchill Dew Point Humidity Wind Precip. Elev Updated Type
                   

Watches & Warnings

There are currently no watches in effect.